Time;durP1;ratioP1;P1;durP2;ratioP2;P2;SDS_P1;SDS_P2;PMS_P1;PMS_P2;Temp;Humidity;BMP_temperature;BMP_pressure;BME280_temperature;BME280_humidity;BME280_pressure;Samples;Min_cycle;Max_cycle;Signal;HPM_P1;HPM_P2
2023/01/27 00:00:05;;;;;;;13.70;8.98;;;4.90;99.90;;;;;;5071774;28;20038;-38
2023/01/27 00:02:31;;;;;;;12.55;8.55;;;4.90;99.90;;;;;;5071642;28;20031;-44
2023/01/27 00:04:57;;;;;;;12.75;8.85;;;4.90;99.90;;;;;;5071628;28;20107;-45
2023/01/27 00:07:23;;;;;;;14.02;8.43;;;5.10;99.90;;;;;;5071454;28;20581;-41
2023/01/27 00:09:49;;;;;;;13.10;8.00;;;5.40;99.90;;;;;;5071952;28;20539;-43
2023/01/27 00:15:06;;;;;;;12.95;8.30;;;5.80;99.90;;;;;;5071812;28;20032;-44
2023/01/27 00:17:32;;;;;;;15.25;8.73;;;5.90;99.90;;;;;;5072024;28;20395;-39
2023/01/27 00:19:58;;;;;;;12.93;9.05;;;5.80;99.90;;;;;;5071317;28;20031;-43
2023/01/27 00:25:08;;;;;;;11.05;7.63;;;5.70;99.90;;;;;;5071946;28;20839;-39
2023/01/27 00:27:33;;;;;;;13.00;8.65;;;5.60;99.90;;;;;;5071112;28;20170;-37
2023/01/27 00:29:59;;;;;;;13.48;8.60;;;5.50;99.90;;;;;;5071227;28;20075;-45
2023/01/27 00:35:09;;;;;;;12.32;8.18;;;5.40;99.90;;;;;;5071467;28;20036;-44
2023/01/27 00:37:35;;;;;;;16.30;8.63;;;5.30;99.90;;;;;;5071048;28;20394;-45
2023/01/27 00:40:01;;;;;;;13.95;8.73;;;5.20;99.90;;;;;;5071361;28;20020;-44
2023/01/27 00:42:27;;;;;;;13.77;9.13;;;5.20;99.90;;;;;;5071363;28;20107;-39
2023/01/27 00:47:37;;;;;;;13.02;8.75;;;5.10;99.90;;;;;;5070952;28;20036;-43
2023/01/27 00:50:03;;;;;;;15.23;9.35;;;5.10;99.90;;;;;;5071128;28;20021;-40
2023/01/27 00:52:28;;;;;;;13.32;8.45;;;5.00;99.90;;;;;;5071050;28;20501;-45
2023/01/27 00:54:54;;;;;;;13.45;9.27;;;5.00;99.90;;;;;;5071589;28;20328;-40
2023/01/27 00:57:20;;;;;;;15.45;9.75;;;5.00;99.90;;;;;;5071031;28;20032;-45
2023/01/27 00:59:45;;;;;;;13.77;8.93;;;4.90;99.90;;;;;;5071527;28;20630;-43
2023/01/27 01:02:11;;;;;;;14.80;9.45;;;4.90;99.90;;;;;;5075221;28;20081;-42
2023/01/27 01:04:37;;;;;;;16.02;9.50;;;5.00;99.90;;;;;;5076024;28;20043;-36
2023/01/27 01:07:02;;;;;;;14.18;9.35;;;5.10;99.90;;;;;;5074834;28;20024;-44
2023/01/27 01:09:28;;;;;;;14.40;9.35;;;5.30;99.90;;;;;;5075712;28;20082;-43
2023/01/27 01:11:53;;;;;;;14.20;9.85;;;5.60;99.90;;;;;;5075633;28;20040;-42
2023/01/27 01:14:19;;;;;;;14.98;9.13;;;5.80;99.90;;;;;;5074712;28;20021;-34
2023/01/27 01:16:45;;;;;;;18.65;10.43;;;5.90;99.90;;;;;;5074620;28;20070;-44
2023/01/27 01:19:10;;;;;;;16.65;9.50;;;5.90;99.90;;;;;;5075190;28;20080;-36
2023/01/27 01:21:36;;;;;;;18.80;10.40;;;5.80;99.90;;;;;;5074987;28;20039;-42
2023/01/27 01:24:02;;;;;;;15.57;9.55;;;5.70;99.90;;;;;;5074715;28;20024;-42
2023/01/27 01:26:28;;;;;;;16.05;10.20;;;5.70;99.90;;;;;;5074537;28;20397;-40
2023/01/27 01:28:53;;;;;;;15.18;9.38;;;5.60;99.90;;;;;;5074591;28;20039;-40
2023/01/27 01:31:19;;;;;;;17.02;10.57;;;5.50;99.90;;;;;;5075083;28;20033;-44
2023/01/27 01:33:46;;;;;;;15.07;9.95;;;5.40;99.90;;;;;;5074488;28;20031;-36
2023/01/27 01:36:15;;;;;;;15.88;10.23;;;5.40;99.90;;;;;;5074226;28;20493;-45
2023/01/27 01:38:41;;;;;;;17.20;10.90;;;5.30;99.90;;;;;;5074554;28;20038;-43
2023/01/27 01:41:14;;;;;;;16.95;10.63;;;5.20;99.90;;;;;;5074387;28;20029;-39
2023/01/27 01:43:39;;;;;;;17.92;11.10;;;5.20;99.90;;;;;;5074256;28;20542;-38
2023/01/27 01:46:08;;;;;;;17.17;11.20;;;5.10;99.90;;;;;;5074647;28;20130;-38
2023/01/27 01:48:41;;;;;;;17.45;11.10;;;5.10;99.90;;;;;;5074162;28;20029;-35
2023/01/27 01:51:38;;;;;;;16.45;10.48;;;5.10;99.90;;;;;;5074272;28;20108;-45
2023/01/27 01:54:09;;;;;;;17.63;10.68;;;5.00;99.90;;;;;;5074056;28;20405;-37
2023/01/27 01:57:10;;;;;;;18.05;11.20;;;5.00;99.90;;;;;;5073854;28;20074;-44
2023/01/27 01:59:40;;;;;;;18.02;11.68;;;4.90;99.90;;;;;;5074865;28;20438;-37
2023/01/27 02:02:12;;;;;;;17.17;10.85;;;4.90;99.90;;;;;;5072650;28;20478;-42
2023/01/27 02:04:56;;;;;;;18.38;11.77;;;5.00;99.90;;;;;;5074260;28;20093;-44
2023/01/27 02:07:41;;;;;;;15.93;10.07;;;5.20;99.90;;;;;;5074092;28;20108;-36
2023/01/27 02:10:06;;;;;;;18.40;11.00;;;5.30;99.90;;;;;;5074279;28;20034;-39
2023/01/27 02:12:32;;;;;;;19.42;11.73;;;5.60;99.90;;;;;;5073391;28;20032;-39
2023/01/27 02:14:58;;;;;;;17.40;10.40;;;5.80;99.90;;;;;;5073723;28;20031;-42
2023/01/27 02:17:23;;;;;;;18.40;10.93;;;6.00;99.90;;;;;;5073441;28;20412;-44
2023/01/27 02:20:11;;;;;;;16.98;10.52;;;6.00;99.90;;;;;;5073226;28;20028;-44
2023/01/27 02:22:51;;;;;;;18.05;11.27;;;5.90;99.90;;;;;;5073825;28;20032;-42
2023/01/27 02:25:43;;;;;;;17.63;11.40;;;5.80;99.90;;;;;;5073769;28;20025;-43
2023/01/27 02:28:09;;;;;;;21.23;11.75;;;5.70;99.90;;;;;;5072045;28;20382;-41
2023/01/27 02:30:34;;;;;;;14.85;10.23;;;5.60;99.90;;;;;;5073411;28;20028;-41
2023/01/27 02:33:00;;;;;;;17.55;11.38;;;5.50;99.90;;;;;;5075146;28;20500;-45
2023/01/27 02:36:02;;;;;;;16.90;11.07;;;5.40;99.90;;;;;;5073975;28;20486;-38
2023/01/27 02:38:34;;;;;;;20.02;11.77;;;5.30;99.90;;;;;;5071590;28;20086;-44
2023/01/27 02:41:11;;;;;;;18.35;11.38;;;5.20;99.90;;;;;;5073716;28;20428;-45
2023/01/27 02:43:37;;;;;;;18.50;10.88;;;5.20;99.90;;;;;;5073594;28;20058;-38
2023/01/27 02:46:02;;;;;;;18.05;11.70;;;5.20;99.90;;;;;;5072929;28;20044;-38
2023/01/27 02:48:28;;;;;;;19.73;12.25;;;5.10;99.90;;;;;;5074127;28;20111;-35
2023/01/27 02:50:54;;;;;;;17.98;11.77;;;5.10;99.90;;;;;;5072995;28;20107;-43
2023/01/27 02:53:19;;;;;;;19.60;11.70;;;5.10;99.90;;;;;;5073422;28;20024;-42
2023/01/27 02:55:45;;;;;;;17.40;10.55;;;5.00;99.90;;;;;;5072847;28;20066;-37
2023/01/27 02:58:10;;;;;;;17.58;11.45;;;5.00;99.90;;;;;;5072832;28;20494;-44
2023/01/27 03:00:36;;;;;;;19.92;11.65;;;5.00;99.90;;;;;;5072849;28;20031;-44
2023/01/27 03:03:02;;;;;;;15.93;10.75;;;5.00;99.90;;;;;;5073202;28;20059;-41
2023/01/27 03:05:27;;;;;;;17.85;11.43;;;5.10;99.90;;;;;;5073821;28;20139;-39
2023/01/27 03:07:53;;;;;;;18.88;11.40;;;5.20;99.90;;;;;;5072543;28;20416;-38
2023/01/27 03:10:18;;;;;;;17.35;10.88;;;5.50;99.90;;;;;;5072534;28;20043;-43
2023/01/27 03:12:44;;;;;;;17.05;10.75;;;5.70;99.90;;;;;;5072578;28;20040;-41
2023/01/27 03:18:11;;;;;;;17.67;10.77;;;6.00;99.90;;;;;;5072421;28;20039;-43
2023/01/27 03:20:47;;;;;;;17.52;10.50;;;5.90;99.90;;;;;;5072429;28;20448;-36
2023/01/27 03:23:15;;;;;;;16.40;10.55;;;5.80;99.90;;;;;;5071854;28;20024;-35
2023/01/27 03:25:42;;;;;;;17.77;11.05;;;5.80;99.90;;;;;;5072247;28;20032;-39
2023/01/27 03:28:08;;;;;;;18.30;11.35;;;5.70;99.90;;;;;;5071980;28;20043;-45
2023/01/27 03:30:34;;;;;;;17.17;10.90;;;5.60;99.90;;;;;;5072235;28;20024;-38
2023/01/27 03:33:02;;;;;;;16.77;10.73;;;5.50;99.90;;;;;;5072957;28;20584;-44
2023/01/27 03:35:32;;;;;;;17.55;10.70;;;5.40;99.90;;;;;;5072122;28;20042;-43
2023/01/27 03:46:15;;;;;;;16.30;10.70;;;5.20;99.90;;;;;;5071830;28;20043;-37
2023/01/27 03:48:41;;;;;;;15.93;10.38;;;5.10;99.90;;;;;;5072378;28;20020;-36
2023/01/27 03:51:09;;;;;;;17.50;11.57;;;5.10;99.90;;;;;;5071827;28;20375;-45
2023/01/27 03:53:36;;;;;;;17.98;11.43;;;5.10;99.90;;;;;;5072174;28;20025;-45
2023/01/27 03:56:03;;;;;;;16.42;10.38;;;5.00;99.90;;;;;;5072463;28;20082;-36
2023/01/27 03:58:31;;;;;;;17.13;10.27;;;5.00;99.90;;;;;;5071892;28;20029;-45
2023/01/27 04:00:59;;;;;;;15.07;9.98;;;5.00;99.90;;;;;;5071737;28;20033;-44
2023/01/27 04:09:03;;;;;;;16.42;10.55;;;5.30;99.90;;;;;;5071871;28;20652;-44
2023/01/27 04:14:14;;;;;;;16.02;10.80;;;5.80;99.90;;;;;;5072529;28;20066;-36
2023/01/27 04:16:40;;;;;;;15.82;10.15;;;5.90;99.90;;;;;;5071293;28;20028;-44
2023/01/27 04:19:07;;;;;;;15.40;9.65;;;5.90;99.90;;;;;;5071438;28;20028;-45
2023/01/27 04:21:33;;;;;;;15.50;10.05;;;5.90;99.90;;;;;;5071503;28;20028;-44
2023/01/27 04:24:00;;;;;;;15.50;10.32;;;5.90;99.90;;;;;;5071392;28;20016;-37
2023/01/27 04:26:32;;;;;;;15.50;9.75;;;5.80;99.90;;;;;;5071092;28;20059;-44
2023/01/27 04:28:58;;;;;;;16.48;10.48;;;5.60;99.90;;;;;;5071586;28;20522;-38
2023/01/27 04:31:24;;;;;;;15.23;10.48;;;5.60;99.90;;;;;;5071295;28;20048;-36
2023/01/27 04:33:49;;;;;;;17.10;9.98;;;5.50;99.90;;;;;;5071587;28;20125;-36
2023/01/27 04:36:15;;;;;;;15.50;10.13;;;5.40;99.90;;;;;;5071434;28;20473;-40
2023/01/27 04:38:41;;;;;;;15.23;9.90;;;5.40;99.90;;;;;;5071223;28;20163;-44
2023/01/27 04:41:06;;;;;;;14.02;9.30;;;5.30;99.90;;;;;;5071505;28;20052;-45
2023/01/27 04:43:32;;;;;;;14.13;9.63;;;5.20;99.90;;;;;;5071648;28;20107;-39
2023/01/27 04:45:58;;;;;;;13.40;9.45;;;5.20;99.90;;;;;;5070287;28;20024;-41
2023/01/27 04:48:23;;;;;;;14.27;9.48;;;5.20;99.90;;;;;;5071695;28;20033;-36
2023/01/27 04:50:49;;;;;;;15.40;9.68;;;5.10;99.90;;;;;;5071601;28;20028;-44
2023/01/27 04:53:14;;;;;;;16.85;10.23;;;5.10;99.90;;;;;;5071042;28;20036;-43
2023/01/27 04:55:47;;;;;;;15.80;10.18;;;5.10;99.90;;;;;;5070938;28;20060;-43
2023/01/27 04:58:13;;;;;;;14.93;10.02;;;5.10;99.90;;;;;;5072237;28;20037;-40
2023/01/27 05:00:40;;;;;;;15.43;9.32;;;5.00;99.90;;;;;;5071307;28;20135;-45
2023/01/27 05:03:08;;;;;;;14.63;9.43;;;5.00;99.90;;;;;;5071273;28;20055;-44
2023/01/27 05:05:33;;;;;;;14.65;9.85;;;5.10;99.90;;;;;;5070996;28;20540;-44
2023/01/27 05:08:04;;;;;;;17.17;9.77;;;5.30;99.90;;;;;;5069396;28;20032;-35
2023/01/27 05:10:29;;;;;;;15.82;10.20;;;5.50;99.90;;;;;;5071072;28;20033;-44
2023/01/27 05:12:55;;;;;;;13.40;9.02;;;5.70;99.90;;;;;;5070929;28;20074;-42
2023/01/27 05:15:20;;;;;;;12.32;8.77;;;5.90;99.90;;;;;;5071179;28;20497;-39
2023/01/27 05:17:46;;;;;;;13.90;9.02;;;6.00;99.90;;;;;;5071132;28;20017;-36
2023/01/27 05:20:11;;;;;;;13.20;8.80;;;5.90;99.90;;;;;;5071307;28;20035;-43
2023/01/27 05:22:37;;;;;;;14.57;9.73;;;5.90;99.90;;;;;;5070824;28;20104;-39
2023/01/27 05:25:03;;;;;;;14.38;8.82;;;5.80;99.90;;;;;;5071254;28;20474;-36
2023/01/27 05:27:28;;;;;;;12.52;8.95;;;5.70;99.90;;;;;;5070802;28;20036;-36
2023/01/27 05:29:54;;;;;;;12.55;8.68;;;5.60;99.90;;;;;;5070886;28;20051;-35
2023/01/27 05:32:20;;;;;;;15.02;9.10;;;5.50;99.90;;;;;;5070804;28;20162;-44
2023/01/27 05:34:45;;;;;;;13.13;9.25;;;5.50;99.90;;;;;;5071081;28;20131;-43
2023/01/27 05:37:11;;;;;;;12.15;8.38;;;5.40;99.90;;;;;;5070473;28;20025;-44
2023/01/27 05:39:36;;;;;;;13.10;8.63;;;5.30;99.90;;;;;;5070623;28;20093;-39
2023/01/27 05:42:02;;;;;;;12.70;8.48;;;5.30;99.90;;;;;;5070931;28;20024;-37
2023/01/27 05:44:28;;;;;;;13.15;9.07;;;5.20;99.90;;;;;;5070647;28;20436;-39
2023/01/27 05:46:53;;;;;;;13.75;9.18;;;5.20;99.90;;;;;;5072550;28;20034;-37
2023/01/27 05:49:19;;;;;;;14.27;9.45;;;5.10;99.90;;;;;;5074226;28;20021;-44
2023/01/27 05:51:44;;;;;;;12.30;8.75;;;5.10;99.90;;;;;;5074339;28;20086;-43
2023/01/27 05:54:10;;;;;;;13.07;8.52;;;5.10;99.90;;;;;;5074180;28;20490;-37
2023/01/27 05:56:36;;;;;;;13.77;9.25;;;5.00;99.90;;;;;;5073856;28;20497;-38
2023/01/27 05:59:02;;;;;;;13.45;9.05;;;5.10;99.90;;;;;;5074070;28;20032;-44
2023/01/27 06:01:30;;;;;;;13.95;9.23;;;5.00;99.90;;;;;;5073964;28;20108;-39
2023/01/27 06:03:57;;;;;;;12.00;8.85;;;5.00;99.90;;;;;;5073977;28;20083;-41
2023/01/27 06:06:24;;;;;;;12.95;8.98;;;5.10;99.90;;;;;;5073710;28;20112;-39
2023/01/27 06:08:51;;;;;;;12.75;8.38;;;5.30;99.90;;;;;;5073888;28;20027;-34
2023/01/27 06:11:18;;;;;;;12.65;8.52;;;5.50;99.90;;;;;;5074408;28;20032;-44
2023/01/27 06:13:44;;;;;;;12.00;8.25;;;5.70;99.90;;;;;;5074214;28;20035;-44
2023/01/27 06:16:13;;;;;;;12.05;8.43;;;5.90;99.90;;;;;;5073496;28;20029;-40
2023/01/27 06:18:39;;;;;;;11.95;8.18;;;5.90;99.90;;;;;;5073403;28;20481;-36
2023/01/27 06:21:07;;;;;;;12.13;8.25;;;5.90;99.90;;;;;;5073692;28;20060;-44
2023/01/27 06:23:33;;;;;;;12.80;8.63;;;5.80;99.90;;;;;;5073660;28;20538;-42
2023/01/27 06:26:06;;;;;;;13.50;9.15;;;5.70;99.90;;;;;;5073946;28;20119;-45
2023/01/27 06:28:31;;;;;;;12.65;8.73;;;5.60;99.90;;;;;;5072172;28;20086;-41
2023/01/27 06:31:12;;;;;;;13.43;8.65;;;5.50;99.90;;;;;;5073690;28;20025;-37
2023/01/27 06:33:38;;;;;;;12.50;8.15;;;5.40;99.90;;;;;;5073436;28;20028;-44
2023/01/27 06:36:11;;;;;;;13.05;8.82;;;5.40;99.90;;;;;;5073555;28;20352;-45
2023/01/27 06:38:37;;;;;;;13.50;9.00;;;5.30;99.90;;;;;;5073559;28;20486;-44
2023/01/27 06:41:03;;;;;;;12.75;8.60;;;5.30;99.90;;;;;;5073310;28;20035;-44
2023/01/27 06:43:29;;;;;;;15.10;8.95;;;5.20;99.90;;;;;;5073304;28;20386;-44
2023/01/27 06:45:56;;;;;;;12.88;8.38;;;5.20;99.90;;;;;;5073028;28;20086;-40
2023/01/27 06:48:23;;;;;;;13.50;9.32;;;5.20;99.90;;;;;;5073110;28;20025;-38
2023/01/27 06:50:49;;;;;;;13.88;8.85;;;5.10;99.90;;;;;;5073104;28;20039;-39
2023/01/27 06:53:15;;;;;;;13.43;8.85;;;5.10;99.90;;;;;;5072992;28;20028;-36
2023/01/27 06:55:40;;;;;;;13.00;9.20;;;5.00;99.90;;;;;;5073550;28;20032;-42
2023/01/27 06:58:10;;;;;;;12.57;9.13;;;5.00;99.90;;;;;;5073444;28;20419;-35
2023/01/27 07:00:36;;;;;;;11.45;8.23;;;5.00;99.90;;;;;;5073224;28;20028;-40
2023/01/27 07:03:02;;;;;;;11.23;8.43;;;5.00;99.90;;;;;;5073142;28;20473;-37
2023/01/27 07:05:28;;;;;;;13.25;9.25;;;5.00;99.90;;;;;;5072697;28;20020;-37
2023/01/27 07:07:54;;;;;;;14.55;9.73;;;5.20;99.90;;;;;;5072772;28;20432;-44
2023/01/27 07:10:19;;;;;;;12.23;9.13;;;5.50;99.90;;;;;;5072665;28;20036;-44
2023/01/27 07:12:45;;;;;;;13.95;9.82;;;5.60;99.90;;;;;;5073810;28;20024;-45
2023/01/27 07:15:11;;;;;;;12.55;9.40;;;5.90;99.90;;;;;;5073883;28;20094;-35
2023/01/27 07:17:37;;;;;;;15.07;9.02;;;5.90;99.90;;;;;;5072768;28;20024;-40
2023/01/27 07:20:04;;;;;;;13.40;8.80;;;5.90;99.90;;;;;;5072827;28;20023;-44
2023/01/27 07:22:30;;;;;;;13.35;9.05;;;5.80;99.90;;;;;;5073036;28;20043;-43
2023/01/27 07:24:55;;;;;;;12.52;8.70;;;5.70;99.90;;;;;;5071033;28;20483;-40
2023/01/27 07:27:23;;;;;;;14.00;9.18;;;5.70;99.90;;;;;;5072685;28;20112;-44
2023/01/27 07:29:48;;;;;;;15.20;9.18;;;5.60;99.90;;;;;;5072233;28;20029;-44
2023/01/27 07:32:14;;;;;;;14.07;9.60;;;5.50;99.90;;;;;;5072173;28;20466;-38
2023/01/27 07:34:39;;;;;;;14.38;9.63;;;5.40;99.90;;;;;;5072110;28;20082;-38
2023/01/27 07:37:05;;;;;;;13.07;9.02;;;5.40;99.90;;;;;;5071953;28;20047;-37
2023/01/27 07:39:32;;;;;;;13.23;9.55;;;5.30;99.90;;;;;;5072211;28;20106;-37
2023/01/27 07:42:00;;;;;;;14.35;9.40;;;5.30;99.90;;;;;;5072262;28;20454;-39
2023/01/27 07:44:26;;;;;;;13.73;9.80;;;5.20;99.90;;;;;;5072665;28;20028;-45
2023/01/27 07:46:52;;;;;;;13.88;9.32;;;5.10;99.90;;;;;;5071842;28;20584;-38
2023/01/27 07:49:17;;;;;;;14.02;9.23;;;5.10;99.90;;;;;;5072507;28;20032;-36
2023/01/27 07:51:43;;;;;;;14.23;9.55;;;5.00;99.90;;;;;;5071886;28;20021;-37
2023/01/27 07:54:08;;;;;;;15.02;9.20;;;5.00;99.90;;;;;;5071962;28;20421;-41
2023/01/27 07:56:35;;;;;;;13.73;9.25;;;5.00;99.90;;;;;;5071647;28;20104;-37
2023/01/27 07:59:00;;;;;;;13.57;9.40;;;5.00;99.90;;;;;;5073046;28;20398;-38
2023/01/27 08:01:26;;;;;;;12.57;9.52;;;5.00;99.90;;;;;;5071798;28;20021;-37
2023/01/27 08:03:52;;;;;;;13.15;9.38;;;4.90;99.90;;;;;;5071631;28;20513;-36
2023/01/27 08:06:17;;;;;;;13.80;10.20;;;4.90;99.90;;;;;;5072196;28;20456;-44
2023/01/27 08:08:43;;;;;;;12.57;9.23;;;4.90;99.90;;;;;;5073269;28;20021;-40
2023/01/27 08:11:12;;;;;;;13.73;9.40;;;4.90;99.90;;;;;;5071693;28;20020;-37
2023/01/27 08:13:38;;;;;;;14.73;9.27;;;4.90;99.90;;;;;;5071560;28;20037;-44
2023/01/27 08:16:06;;;;;;;14.23;9.60;;;4.90;99.90;;;;;;5071372;28;20552;-41
2023/01/27 08:18:34;;;;;;;14.88;9.95;;;4.90;99.90;;;;;;5072096;28;20044;-44
2023/01/27 08:21:02;;;;;;;14.65;9.73;;;4.90;99.90;;;;;;5072600;28;20057;-44
2023/01/27 08:23:28;;;;;;;13.75;9.65;;;4.90;99.90;;;;;;5071468;28;20486;-37
2023/01/27 08:25:57;;;;;;;14.05;9.88;;;5.00;99.90;;;;;;5071206;28;20089;-43
2023/01/27 08:28:24;;;;;;;12.77;9.23;;;5.30;99.90;;;;;;5072097;28;20027;-38
2023/01/27 08:30:53;;;;;;;11.88;8.73;;;5.40;99.90;;;;;;5071564;28;20024;-45
2023/01/27 08:33:23;;;;;;;12.75;8.95;;;5.40;99.90;;;;;;5070228;28;20035;-37
2023/01/27 08:35:49;;;;;;;18.60;11.95;;;5.40;99.90;;;;;;5071062;28;20017;-37
2023/01/27 08:38:17;;;;;;;18.73;13.05;;;5.30;99.90;;;;;;5071126;28;20518;-43
2023/01/27 08:40:44;;;;;;;19.52;12.90;;;5.00;99.90;;;;;;5071262;28;20020;-39
2023/01/27 08:43:11;;;;;;;17.70;12.15;;;4.80;99.90;;;;;;5071227;28;20117;-44
2023/01/27 08:45:36;;;;;;;18.67;12.65;;;4.70;99.90;;;;;;5072018;28;20513;-36
2023/01/27 08:48:05;;;;;;;20.52;12.90;;;4.70;99.90;;;;;;5071323;28;20032;-41
2023/01/27 08:50:31;;;;;;;18.67;12.65;;;4.70;99.90;;;;;;5072029;28;20422;-43
2023/01/27 08:52:58;;;;;;;18.10;12.70;;;4.70;99.90;;;;;;5071500;28;20033;-41
2023/01/27 08:55:28;;;;;;;20.67;12.85;;;4.60;99.90;;;;;;5071143;28;20020;-42
2023/01/27 08:57:54;;;;;;;18.55;12.63;;;4.60;99.90;;;;;;5070904;28;20020;-43
2023/01/27 09:00:21;;;;;;;21.02;12.73;;;4.70;99.90;;;;;;5071461;28;20019;-44
2023/01/27 09:02:47;;;;;;;18.35;12.40;;;4.90;99.90;;;;;;5071097;28;20398;-38
2023/01/27 09:05:13;;;;;;;17.55;11.65;;;5.00;99.90;;;;;;5071274;28;20025;-43
2023/01/27 09:07:39;;;;;;;17.63;11.77;;;5.00;99.90;;;;;;5070710;28;20032;-42
2023/01/27 09:10:05;;;;;;;17.77;12.10;;;5.00;99.90;;;;;;5071119;28;20471;-37
2023/01/27 09:12:31;;;;;;;18.27;11.52;;;5.00;99.90;;;;;;5071082;28;20024;-43
2023/01/27 09:14:57;;;;;;;17.42;12.15;;;5.00;99.90;;;;;;5071579;28;20033;-36
2023/01/27 09:17:24;;;;;;;19.35;12.40;;;5.00;99.90;;;;;;5070578;28;20036;-36
2023/01/27 09:19:50;;;;;;;17.33;11.02;;;4.90;99.90;;;;;;5070530;28;20099;-43
2023/01/27 09:22:16;;;;;;;15.73;11.10;;;5.00;99.90;;;;;;5073869;28;20035;-36
2023/01/27 09:24:41;;;;;;;17.40;11.57;;;5.20;99.90;;;;;;5074922;28;20028;-35
2023/01/27 09:27:07;;;;;;;16.13;11.68;;;5.30;99.90;;;;;;5074686;28;20039;-34
2023/01/27 09:29:33;;;;;;;15.38;10.77;;;5.30;99.90;;;;;;5074516;28;20052;-38
2023/01/27 09:31:58;;;;;;;15.35;11.02;;;5.20;99.90;;;;;;5074447;28;20043;-42
2023/01/27 09:34:24;;;;;;;16.83;10.57;;;5.20;99.90;;;;;;5074399;28;20032;-44
2023/01/27 09:37:01;;;;;;;15.02;10.85;;;5.20;99.90;;;;;;5074313;28;20210;-38
2023/01/27 09:39:29;;;;;;;19.63;11.25;;;5.10;99.90;;;;;;5074357;28;20540;-38
2023/01/27 09:41:57;;;;;;;19.95;12.38;;;4.90;99.90;;;;;;5074540;28;20089;-41
2023/01/27 09:44:29;;;;;;;20.77;11.70;;;;;;;;;;5074380;28;20027;-38
2023/01/27 09:47:29;;;;;;;20.73;12.18;;;4.50;99.90;;;;;;5074436;28;20024;-41
2023/01/27 09:50:07;;;;;;;17.33;11.30;;;4.60;99.90;;;;;;5075145;28;20197;-42
2023/01/27 09:53:04;;;;;;;18.92;12.00;;;4.80;99.90;;;;;;5074191;28;20466;-33
2023/01/27 09:55:35;;;;;;;17.65;12.02;;;4.80;99.90;;;;;;5074105;28;20554;-36
2023/01/27 09:58:23;;;;;;;18.33;10.82;;;4.80;99.90;;;;;;5074568;28;20033;-35
2023/01/27 10:00:56;;;;;;;16.90;11.63;;;4.80;99.90;;;;;;5074486;28;20297;-43
2023/01/27 10:03:28;;;;;;;19.63;11.88;;;4.80;99.90;;;;;;5074760;28;20617;-43
2023/01/27 10:06:05;;;;;;;17.30;10.95;;;4.80;99.90;;;;;;5073853;28;20029;-40
2023/01/27 10:08:44;;;;;;;17.58;11.30;;;4.80;99.90;;;;;;5074480;28;20115;-38
2023/01/27 10:11:26;;;;;;;17.02;10.38;;;4.80;99.90;;;;;;5073927;28;20024;-37
2023/01/27 10:14:18;;;;;;;18.42;10.88;;;4.90;99.90;;;;;;5073708;28;20034;-36
2023/01/27 10:16:51;;;;;;;14.15;9.68;;;5.10;99.90;;;;;;5073581;28;20081;-39
2023/01/27 10:19:28;;;;;;;18.98;11.43;;;5.10;99.90;;;;;;5073697;28;20059;-43
2023/01/27 10:22:17;;;;;;;17.77;10.35;;;5.20;99.90;;;;;;5073744;28;20029;-33
2023/01/27 10:25:15;;;;;;;17.60;10.40;;;5.10;99.90;;;;;;5074049;28;20469;-34
2023/01/27 10:27:52;;;;;;;18.67;10.60;;;5.10;99.90;;;;;;5072689;28;20119;-41
2023/01/27 10:30:37;;;;;;;16.40;10.75;;;5.10;99.90;;;;;;5073463;28;20029;-34
2023/01/27 10:33:17;;;;;;;15.30;10.27;;;5.00;99.90;;;;;;5073371;28;20463;-43
2023/01/27 10:35:55;;;;;;;15.18;9.60;;;5.00;99.90;;;;;;5073326;28;20024;-36
2023/01/27 10:38:26;;;;;;;20.10;12.77;;;5.20;99.90;;;;;;5073199;28;20081;-36
2023/01/27 10:41:05;;;;;;;24.23;13.10;;;5.10;99.90;;;;;;5073314;28;20024;-35
2023/01/27 10:43:41;;;;;;;19.92;12.55;;;5.00;99.90;;;;;;5073579;28;20024;-34
2023/01/27 10:46:25;;;;;;;18.13;11.93;;;4.90;99.90;;;;;;5073033;28;20030;-43
2023/01/27 10:48:53;;;;;;;21.25;12.40;;;4.90;99.90;;;;;;5073193;28;20035;-44
2023/01/27 10:51:28;;;;;;;20.65;12.82;;;4.80;99.90;;;;;;5073085;28;20028;-40
2023/01/27 10:54:11;;;;;;;20.10;12.77;;;4.80;99.90;;;;;;5073086;28;20052;-42
2023/01/27 10:56:48;;;;;;;20.30;13.00;;;4.80;99.90;;;;;;5073136;28;20040;-42
2023/01/27 10:59:37;;;;;;;19.67;12.60;;;4.80;99.90;;;;;;5073148;28;20115;-39
2023/01/27 11:02:33;;;;;;;19.08;12.13;;;5.00;99.90;;;;;;5072864;28;20020;-43
2023/01/27 11:05:02;;;;;;;19.77;12.77;;;5.10;99.90;;;;;;5072322;28;20469;-42
2023/01/27 11:07:31;;;;;;;18.60;11.45;;;5.20;99.90;;;;;;5073528;28;20035;-34
2023/01/27 11:10:06;;;;;;;18.30;11.20;;;5.20;99.90;;;;;;5072662;28;20069;-35
2023/01/27 11:12:38;;;;;;;21.33;12.98;;;5.10;99.90;;;;;;5072630;28;20024;-43
2023/01/27 11:15:28;;;;;;;18.50;12.20;;;5.10;99.90;;;;;;5072639;28;20047;-34
2023/01/27 11:18:19;;;;;;;16.75;11.07;;;5.00;99.90;;;;;;5072129;28;20028;-35
2023/01/27 11:20:49;;;;;;;16.70;11.07;;;5.00;99.90;;;;;;5072556;28;20020;-41
2023/01/27 11:23:39;;;;;;;17.88;11.65;;;5.10;99.90;;;;;;5072564;28;20143;-43
2023/01/27 11:26:32;;;;;;;19.42;11.73;;;5.20;99.90;;;;;;5071411;28;20036;-40
2023/01/27 11:29:20;;;;;;;19.58;11.65;;;5.30;99.90;;;;;;5072624;28;20028;-43
2023/01/27 11:32:04;;;;;;;17.27;11.23;;;5.30;99.90;;;;;;5072714;28;20469;-41
2023/01/27 11:35:01;;;;;;;19.42;11.05;;;5.30;99.90;;;;;;5072187;28;20017;-41
2023/01/27 11:37:45;;;;;;;14.73;10.38;;;5.20;99.90;;;;;;5071463;28;20028;-35
2023/01/27 11:40:15;;;;;;;16.52;11.18;;;5.20;99.90;;;;;;5072097;28;20048;-43
2023/01/27 11:42:42;;;;;;;17.52;10.80;;;5.20;99.90;;;;;;5073525;28;20036;-39
2023/01/27 11:45:14;;;;;;;19.35;11.60;;;5.10;99.90;;;;;;5072150;28;20478;-42
2023/01/27 11:47:41;;;;;;;17.27;10.57;;;5.20;99.90;;;;;;5071834;28;20024;-42
2023/01/27 11:50:12;;;;;;;16.92;11.20;;;5.30;99.90;;;;;;5072032;28;20032;-37
2023/01/27 11:52:38;;;;;;;18.42;11.25;;;5.40;99.90;;;;;;5071946;28;20565;-40
2023/01/27 11:55:13;;;;;;;17.85;11.02;;;5.40;99.90;;;;;;5071872;28;20155;-44
2023/01/27 11:57:45;;;;;;;19.02;10.57;;;5.40;99.90;;;;;;5072493;28;20054;-37
2023/01/27 12:00:28;;;;;;;17.02;10.77;;;5.40;99.90;;;;;;5073096;28;20111;-44
2023/01/27 12:03:01;;;;;;;17.20;10.05;;;5.30;99.90;;;;;;5071848;28;20056;-44
2023/01/27 12:05:32;;;;;;;18.05;10.93;;;5.30;99.90;;;;;;5071656;28;20036;-43
2023/01/27 12:08:03;;;;;;;16.02;10.38;;;5.20;99.90;;;;;;5071915;28;20037;-42
2023/01/27 12:10:30;;;;;;;16.17;10.18;;;5.20;99.90;;;;;;5071892;28;20043;-39
2023/01/27 12:12:59;;;;;;;16.23;10.88;;;5.30;99.90;;;;;;5072591;28;20100;-42
2023/01/27 12:15:29;;;;;;;15.07;10.18;;;5.40;99.90;;;;;;5071476;28;20104;-40
2023/01/27 12:18:03;;;;;;;16.02;10.65;;;5.50;99.90;;;;;;5071847;28;20025;-44
2023/01/27 12:20:40;;;;;;;15.15;10.35;;;5.40;99.90;;;;;;5071455;28;20156;-43
2023/01/27 12:23:29;;;;;;;14.70;9.85;;;5.40;99.90;;;;;;5071480;28;20414;-44
2023/01/27 12:26:00;;;;;;;14.80;9.98;;;5.40;99.90;;;;;;5072524;28;20052;-41
2023/01/27 12:28:40;;;;;;;14.68;9.63;;;5.30;99.90;;;;;;5072347;28;20021;-34
2023/01/27 12:31:16;;;;;;;14.13;9.45;;;5.30;99.90;;;;;;5071356;28;20060;-37
2023/01/27 12:33:50;;;;;;;14.55;10.07;;;5.20;99.90;;;;;;5071345;28;20020;-35
2023/01/27 12:36:21;;;;;;;17.38;10.40;;;5.30;99.90;;;;;;5071330;28;20017;-41
2023/01/27 12:38:52;;;;;;;17.60;10.15;;;5.40;99.90;;;;;;5071231;28;20057;-33
2023/01/27 12:41:30;;;;;;;16.33;10.02;;;5.50;99.90;;;;;;5071477;28;20166;-40
2023/01/27 12:44:08;;;;;;;14.63;9.80;;;5.50;99.90;;;;;;5071220;28;20031;-43
2023/01/27 12:46:34;;;;;;;17.73;10.68;;;5.40;99.90;;;;;;5071359;28;20445;-38
2023/01/27 12:49:13;;;;;;;15.82;9.60;;;5.40;99.90;;;;;;5071190;28;20048;-37
2023/01/27 12:51:44;;;;;;;16.15;9.60;;;5.40;99.90;;;;;;5073002;28;20029;-44
2023/01/27 12:54:31;;;;;;;15.68;9.52;;;5.30;99.90;;;;;;5071914;28;20027;-44
2023/01/27 12:57:02;;;;;;;16.98;9.60;;;5.30;99.90;;;;;;5073455;28;20075;-36
2023/01/27 12:59:28;;;;;;;17.40;10.30;;;5.30;99.90;;;;;;5075220;28;20112;-40
2023/01/27 13:02:19;;;;;;;15.45;9.38;;;5.40;99.90;;;;;;5075416;28;20096;-44
2023/01/27 13:04:57;;;;;;;14.45;9.00;;;5.50;99.90;;;;;;5075148;28;20054;-43
2023/01/27 13:07:29;;;;;;;16.30;9.55;;;5.50;99.90;;;;;;5074908;28;20035;-43
2023/01/27 13:10:04;;;;;;;13.45;8.80;;;5.50;99.90;;;;;;5074991;28;20027;-38
2023/01/27 13:12:45;;;;;;;22.67;13.73;;;5.40;99.90;;;;;;5076627;28;20071;-37
2023/01/27 13:15:21;;;;;;;24.80;13.88;;;5.10;99.90;;;;;;5074994;28;20013;-45
2023/01/27 13:17:51;;;;;;;21.20;12.88;;;4.80;99.90;;;;;;5074809;28;20028;-43
2023/01/27 13:20:42;;;;;;;22.77;13.38;;;4.70;99.90;;;;;;5074812;28;20425;-42
2023/01/27 13:23:21;;;;;;;21.63;13.10;;;4.70;99.90;;;;;;5074788;28;20482;-34
2023/01/27 13:26:11;;;;;;;22.25;13.77;;;4.90;99.90;;;;;;5074632;28;20040;-39